sensor_id;sensor_type;location;lat;lon;timestamp;pressure;altitude;pressure_sealevel;temperature;humidity
48364;BME280;34170;54.364;18.582;2023-03-14T00:02:17;97796.56;;;11.61;100.00
48364;BME280;34170;54.364;18.582;2023-03-14T00:04:45;97814.56;;;11.68;100.00
48364;BME280;34170;54.364;18.582;2023-03-14T00:07:13;97804.28;;;11.44;100.00
48364;BME280;34170;54.364;18.582;2023-03-14T00:09:41;97813.81;;;11.47;100.00
48364;BME280;34170;54.364;18.582;2023-03-14T00:12:08;97805.59;;;11.29;100.00
48364;BME280;34170;54.364;18.582;2023-03-14T00:14:36;97841.75;;;11.53;100.00
48364;BME280;34170;54.364;18.582;2023-03-14T00:17:03;97835.75;;;11.51;100.00
48364;BME280;34170;54.364;18.582;2023-03-14T00:19:31;97840.28;;;11.57;100.00
48364;BME280;34170;54.364;18.582;2023-03-14T00:21:58;97844.84;;;11.56;100.00
48364;BME280;34170;54.364;18.582;2023-03-14T00:24:26;97838.63;;;11.56;100.00
48364;BME280;34170;54.364;18.582;2023-03-14T00:26:53;97831.38;;;11.50;100.00
48364;BME280;34170;54.364;18.582;2023-03-14T00:29:22;97826.03;;;11.43;100.00
48364;BME280;34170;54.364;18.582;2023-03-14T00:31:50;97821.91;;;11.34;100.00
48364;BME280;34170;54.364;18.582;2023-03-14T00:34:17;97832.63;;;11.54;100.00
48364;BME280;34170;54.364;18.582;2023-03-14T00:36:45;97824.31;;;11.55;100.00
48364;BME280;34170;54.364;18.582;2023-03-14T00:39:12;97818.34;;;11.53;100.00
48364;BME280;34170;54.364;18.582;2023-03-14T00:41:40;97811.31;;;11.45;100.00
48364;BME280;34170;54.364;18.582;2023-03-14T00:44:07;97803.44;;;11.57;100.00
48364;BME280;34170;54.364;18.582;2023-03-14T00:46:34;97804.88;;;11.60;100.00
48364;BME280;34170;54.364;18.582;2023-03-14T00:49:02;97818.13;;;11.61;100.00
48364;BME280;34170;54.364;18.582;2023-03-14T00:51:30;97811.88;;;11.68;100.00
48364;BME280;34170;54.364;18.582;2023-03-14T00:53:57;97823.50;;;11.61;100.00
48364;BME280;34170;54.364;18.582;2023-03-14T00:56:24;97835.66;;;11.84;100.00
48364;BME280;34170;54.364;18.582;2023-03-14T00:58:56;97836.28;;;11.73;100.00
48364;BME280;34170;54.364;18.582;2023-03-14T01:01:24;97833.41;;;11.68;100.00
48364;BME280;34170;54.364;18.582;2023-03-14T01:03:52;97825.97;;;11.70;100.00
48364;BME280;34170;54.364;18.582;2023-03-14T01:06:22;97843.13;;;11.75;100.00
48364;BME280;34170;54.364;18.582;2023-03-14T01:08:51;97840.69;;;11.60;100.00
48364;BME280;34170;54.364;18.582;2023-03-14T01:11:23;97795.16;;;11.52;100.00
48364;BME280;34170;54.364;18.582;2023-03-14T01:13:51;97801.34;;;11.59;100.00
48364;BME280;34170;54.364;18.582;2023-03-14T01:16:21;97798.06;;;11.57;100.00
48364;BME280;34170;54.364;18.582;2023-03-14T01:18:50;97795.78;;;11.54;100.00
48364;BME280;34170;54.364;18.582;2023-03-14T01:21:23;97809.84;;;11.56;100.00
48364;BME280;34170;54.364;18.582;2023-03-14T01:23:53;97808.75;;;11.71;100.00
48364;BME280;34170;54.364;18.582;2023-03-14T01:26:23;97803.38;;;11.64;100.00
48364;BME280;34170;54.364;18.582;2023-03-14T01:28:54;97801.66;;;11.83;100.00
48364;BME280;34170;54.364;18.582;2023-03-14T01:31:23;97797.50;;;11.87;100.00
48364;BME280;34170;54.364;18.582;2023-03-14T01:33:51;97795.97;;;11.59;100.00
48364;BME280;34170;54.364;18.582;2023-03-14T01:36:19;97794.88;;;11.74;100.00
48364;BME280;34170;54.364;18.582;2023-03-14T01:38:47;97792.38;;;11.79;100.00
48364;BME280;34170;54.364;18.582;2023-03-14T01:41:19;97795.88;;;11.79;100.00
48364;BME280;34170;54.364;18.582;2023-03-14T01:43:48;97792.00;;;11.69;100.00
48364;BME280;34170;54.364;18.582;2023-03-14T01:46:34;97781.84;;;11.64;100.00
48364;BME280;34170;54.364;18.582;2023-03-14T01:49:24;97781.41;;;11.74;100.00
48364;BME280;34170;54.364;18.582;2023-03-14T01:52:19;97798.59;;;11.73;100.00
48364;BME280;34170;54.364;18.582;2023-03-14T01:54:55;97786.81;;;11.74;100.00
48364;BME280;34170;54.364;18.582;2023-03-14T01:57:39;97773.06;;;11.82;100.00
48364;BME280;34170;54.364;18.582;2023-03-14T02:00:14;97763.88;;;11.64;100.00
48364;BME280;34170;54.364;18.582;2023-03-14T02:02:46;97779.41;;;11.62;100.00
48364;BME280;34170;54.364;18.582;2023-03-14T02:05:19;97761.59;;;11.61;100.00
48364;BME280;34170;54.364;18.582;2023-03-14T02:08:02;97763.47;;;11.54;100.00
48364;BME280;34170;54.364;18.582;2023-03-14T02:10:40;97754.78;;;11.59;100.00
48364;BME280;34170;54.364;18.582;2023-03-14T02:13:10;97741.94;;;11.54;100.00
48364;BME280;34170;54.364;18.582;2023-03-14T02:16:01;97733.88;;;11.54;100.00
48364;BME280;34170;54.364;18.582;2023-03-14T02:18:52;97757.69;;;11.57;100.00
48364;BME280;34170;54.364;18.582;2023-03-14T02:22:34;97759.97;;;11.54;100.00
48364;BME280;34170;54.364;18.582;2023-03-14T02:27:59;97753.00;;;11.78;100.00
48364;BME280;34170;54.364;18.582;2023-03-14T02:30:29;97762.28;;;11.43;100.00
48364;BME280;34170;54.364;18.582;2023-03-14T02:33:08;97751.63;;;11.62;100.00
48364;BME280;34170;54.364;18.582;2023-03-14T02:38:29;97736.38;;;11.49;100.00
48364;BME280;34170;54.364;18.582;2023-03-14T02:41:00;97751.34;;;11.32;100.00
48364;BME280;34170;54.364;18.582;2023-03-14T02:43:30;97737.19;;;11.50;100.00
48364;BME280;34170;54.364;18.582;2023-03-14T02:46:01;97719.44;;;11.35;100.00
48364;BME280;34170;54.364;18.582;2023-03-14T02:48:35;97720.28;;;11.36;100.00
48364;BME280;34170;54.364;18.582;2023-03-14T02:51:05;97746.13;;;11.43;100.00
48364;BME280;34170;54.364;18.582;2023-03-14T02:53:35;97738.75;;;11.19;100.00
48364;BME280;34170;54.364;18.582;2023-03-14T02:56:09;97741.03;;;11.29;100.00
48364;BME280;34170;54.364;18.582;2023-03-14T02:58:37;97757.53;;;11.39;100.00
48364;BME280;34170;54.364;18.582;2023-03-14T03:01:28;97755.69;;;11.33;100.00
48364;BME280;34170;54.364;18.582;2023-03-14T03:03:56;97775.81;;;11.03;100.00
48364;BME280;34170;54.364;18.582;2023-03-14T03:06:23;97787.19;;;11.12;100.00
48364;BME280;34170;54.364;18.582;2023-03-14T03:08:50;97806.41;;;11.29;100.00
48364;BME280;34170;54.364;18.582;2023-03-14T03:11:18;97777.00;;;11.34;100.00
48364;BME280;34170;54.364;18.582;2023-03-14T03:13:46;97789.66;;;11.27;100.00
48364;BME280;34170;54.364;18.582;2023-03-14T03:16:14;97789.44;;;11.22;100.00
48364;BME280;34170;54.364;18.582;2023-03-14T03:18:42;97806.56;;;11.41;100.00
48364;BME280;34170;54.364;18.582;2023-03-14T03:21:10;97803.91;;;11.34;100.00
48364;BME280;34170;54.364;18.582;2023-03-14T03:23:37;97817.13;;;11.49;100.00
48364;BME280;34170;54.364;18.582;2023-03-14T03:26:05;97824.13;;;11.57;100.00
48364;BME280;34170;54.364;18.582;2023-03-14T03:28:33;97820.41;;;11.51;100.00
48364;BME280;34170;54.364;18.582;2023-03-14T03:31:07;97829.53;;;11.50;100.00
48364;BME280;34170;54.364;18.582;2023-03-14T03:33:37;97826.19;;;11.68;100.00
48364;BME280;34170;54.364;18.582;2023-03-14T03:36:05;97823.69;;;11.73;100.00
48364;BME280;34170;54.364;18.582;2023-03-14T03:38:36;97824.47;;;11.80;100.00
48364;BME280;34170;54.364;18.582;2023-03-14T03:41:05;97837.50;;;11.90;100.00
48364;BME280;34170;54.364;18.582;2023-03-14T03:43:34;97821.78;;;11.80;100.00
48364;BME280;34170;54.364;18.582;2023-03-14T03:46:05;97832.38;;;11.69;100.00
48364;BME280;34170;54.364;18.582;2023-03-14T03:48:34;97844.75;;;11.83;100.00
48364;BME280;34170;54.364;18.582;2023-03-14T03:51:04;97836.03;;;11.94;100.00
48364;BME280;34170;54.364;18.582;2023-03-14T03:53:33;97835.19;;;11.87;100.00
48364;BME280;34170;54.364;18.582;2023-03-14T03:56:05;97832.56;;;11.80;100.00
48364;BME280;34170;54.364;18.582;2023-03-14T03:58:33;97827.09;;;12.00;100.00
48364;BME280;34170;54.364;18.582;2023-03-14T04:01:02;97826.91;;;11.95;100.00
48364;BME280;34170;54.364;18.582;2023-03-14T04:03:29;97819.72;;;11.76;100.00
48364;BME280;34170;54.364;18.582;2023-03-14T04:05:59;97803.94;;;11.86;100.00
48364;BME280;34170;54.364;18.582;2023-03-14T04:08:27;97807.88;;;11.90;100.00
48364;BME280;34170;54.364;18.582;2023-03-14T04:10:59;97797.16;;;11.77;100.00
48364;BME280;34170;54.364;18.582;2023-03-14T04:13:47;97809.13;;;11.88;100.00
48364;BME280;34170;54.364;18.582;2023-03-14T04:16:18;97807.00;;;11.96;100.00
48364;BME280;34170;54.364;18.582;2023-03-14T04:18:46;97802.09;;;11.80;100.00
48364;BME280;34170;54.364;18.582;2023-03-14T04:21:15;97805.97;;;12.04;100.00
48364;BME280;34170;54.364;18.582;2023-03-14T04:23:56;97784.03;;;11.87;100.00
48364;BME280;34170;54.364;18.582;2023-03-14T04:26:25;97787.50;;;12.08;100.00
48364;BME280;34170;54.364;18.582;2023-03-14T04:28:53;97780.63;;;12.12;100.00
48364;BME280;34170;54.364;18.582;2023-03-14T04:31:22;97760.97;;;12.05;100.00
48364;BME280;34170;54.364;18.582;2023-03-14T04:33:51;97770.09;;;12.04;100.00
48364;BME280;34170;54.364;18.582;2023-03-14T04:36:25;97746.16;;;11.82;100.00
48364;BME280;34170;54.364;18.582;2023-03-14T04:38:53;97753.81;;;11.85;100.00
48364;BME280;34170;54.364;18.582;2023-03-14T04:41:22;97757.09;;;11.94;100.00
48364;BME280;34170;54.364;18.582;2023-03-14T04:43:50;97747.34;;;11.99;100.00
48364;BME280;34170;54.364;18.582;2023-03-14T04:46:17;97749.44;;;11.97;100.00
48364;BME280;34170;54.364;18.582;2023-03-14T04:48:45;97749.00;;;12.00;100.00
48364;BME280;34170;54.364;18.582;2023-03-14T04:51:13;97750.06;;;11.93;100.00
48364;BME280;34170;54.364;18.582;2023-03-14T04:53:40;97719.69;;;11.79;100.00
48364;BME280;34170;54.364;18.582;2023-03-14T04:56:10;97726.66;;;11.87;100.00
48364;BME280;34170;54.364;18.582;2023-03-14T04:58:42;97704.75;;;11.76;100.00
48364;BME280;34170;54.364;18.582;2023-03-14T05:01:09;97717.19;;;11.77;100.00
48364;BME280;34170;54.364;18.582;2023-03-14T05:03:48;97704.81;;;11.70;100.00
48364;BME280;34170;54.364;18.582;2023-03-14T05:06:35;97687.44;;;11.66;100.00
48364;BME280;34170;54.364;18.582;2023-03-14T05:09:11;97699.50;;;11.56;100.00
48364;BME280;34170;54.364;18.582;2023-03-14T05:12:07;97696.09;;;11.68;100.00
48364;BME280;34170;54.364;18.582;2023-03-14T05:14:55;97694.00;;;11.76;100.00
48364;BME280;34170;54.364;18.582;2023-03-14T05:17:58;97684.75;;;11.66;100.00
48364;BME280;34170;54.364;18.582;2023-03-14T05:20:44;97669.66;;;11.64;100.00
48364;BME280;34170;54.364;18.582;2023-03-14T05:23:40;97669.31;;;11.48;100.00
48364;BME280;34170;54.364;18.582;2023-03-14T05:26:15;97671.25;;;11.72;100.00
48364;BME280;34170;54.364;18.582;2023-03-14T05:28:59;97664.25;;;11.64;100.00
48364;BME280;34170;54.364;18.582;2023-03-14T05:31:50;97681.38;;;11.77;100.00
48364;BME280;34170;54.364;18.582;2023-03-14T05:34:49;97695.09;;;11.62;100.00
48364;BME280;34170;54.364;18.582;2023-03-14T05:37:31;97706.66;;;11.31;100.00
48364;BME280;34170;54.364;18.582;2023-03-14T05:40:17;97695.13;;;11.10;100.00
48364;BME280;34170;54.364;18.582;2023-03-14T05:43:02;97719.78;;;11.59;100.00
48364;BME280;34170;54.364;18.582;2023-03-14T05:45:49;97703.31;;;11.35;100.00
48364;BME280;34170;54.364;18.582;2023-03-14T05:48:35;97716.75;;;11.42;100.00
48364;BME280;34170;54.364;18.582;2023-03-14T05:51:12;97720.78;;;11.64;100.00
48364;BME280;34170;54.364;18.582;2023-03-14T05:54:02;97710.75;;;11.78;100.00
48364;BME280;34170;54.364;18.582;2023-03-14T05:56:39;97721.88;;;11.89;100.00
48364;BME280;34170;54.364;18.582;2023-03-14T05:59:33;97714.59;;;12.02;100.00
48364;BME280;34170;54.364;18.582;2023-03-14T06:02:23;97711.38;;;11.80;100.00
48364;BME280;34170;54.364;18.582;2023-03-14T06:05:00;97728.78;;;11.78;100.00
48364;BME280;34170;54.364;18.582;2023-03-14T06:07:28;97722.38;;;11.79;100.00
48364;BME280;34170;54.364;18.582;2023-03-14T06:09:56;97717.13;;;11.91;100.00
48364;BME280;34170;54.364;18.582;2023-03-14T06:12:23;97730.78;;;11.89;100.00
48364;BME280;34170;54.364;18.582;2023-03-14T06:14:50;97729.16;;;11.95;100.00
48364;BME280;34170;54.364;18.582;2023-03-14T06:17:18;97720.00;;;11.89;100.00
48364;BME280;34170;54.364;18.582;2023-03-14T06:19:55;97726.84;;;11.98;100.00
48364;BME280;34170;54.364;18.582;2023-03-14T06:22:23;97715.03;;;11.93;100.00
48364;BME280;34170;54.364;18.582;2023-03-14T06:24:50;97735.44;;;12.14;100.00
48364;BME280;34170;54.364;18.582;2023-03-14T06:27:18;97713.81;;;11.95;100.00
48364;BME280;34170;54.364;18.582;2023-03-14T06:29:47;97729.06;;;12.08;100.00
48364;BME280;34170;54.364;18.582;2023-03-14T06:32:14;97723.19;;;12.18;100.00
48364;BME280;34170;54.364;18.582;2023-03-14T06:34:42;97717.56;;;12.19;100.00
48364;BME280;34170;54.364;18.582;2023-03-14T06:37:09;97716.22;;;12.35;100.00
48364;BME280;34170;54.364;18.582;2023-03-14T06:39:37;97737.66;;;12.24;100.00
48364;BME280;34170;54.364;18.582;2023-03-14T06:42:13;97734.31;;;12.53;100.00
48364;BME280;34170;54.364;18.582;2023-03-14T06:44:41;97744.25;;;12.78;100.00
48364;BME280;34170;54.364;18.582;2023-03-14T06:47:09;97726.16;;;12.60;100.00
48364;BME280;34170;54.364;18.582;2023-03-14T06:49:40;97713.41;;;12.49;100.00
48364;BME280;34170;54.364;18.582;2023-03-14T06:52:07;97735.03;;;12.42;100.00
48364;BME280;34170;54.364;18.582;2023-03-14T06:54:35;97727.06;;;12.54;100.00
48364;BME280;34170;54.364;18.582;2023-03-14T06:57:03;97722.53;;;12.48;100.00
48364;BME280;34170;54.364;18.582;2023-03-14T06:59:31;97721.72;;;12.47;100.00
48364;BME280;34170;54.364;18.582;2023-03-14T07:01:58;97721.56;;;12.42;100.00
48364;BME280;34170;54.364;18.582;2023-03-14T07:04:26;97729.13;;;12.52;100.00
48364;BME280;34170;54.364;18.582;2023-03-14T07:06:54;97735.75;;;12.56;100.00
48364;BME280;34170;54.364;18.582;2023-03-14T07:09:21;97735.53;;;12.83;100.00
48364;BME280;34170;54.364;18.582;2023-03-14T07:11:55;97742.06;;;13.12;100.00
48364;BME280;34170;54.364;18.582;2023-03-14T07:14:23;97740.16;;;12.75;100.00
48364;BME280;34170;54.364;18.582;2023-03-14T07:16:50;97733.81;;;12.13;100.00
48364;BME280;34170;54.364;18.582;2023-03-14T07:19:18;97748.00;;;12.52;100.00
48364;BME280;34170;54.364;18.582;2023-03-14T07:21:45;97739.84;;;12.84;100.00
48364;BME280;34170;54.364;18.582;2023-03-14T07:24:14;97731.38;;;12.80;100.00
48364;BME280;34170;54.364;18.582;2023-03-14T07:26:42;97729.59;;;13.36;100.00
48364;BME280;34170;54.364;18.582;2023-03-14T07:29:10;97716.34;;;12.91;100.00
48364;BME280;34170;54.364;18.582;2023-03-14T07:31:39;97721.06;;;12.95;100.00
48364;BME280;34170;54.364;18.582;2023-03-14T07:34:07;97716.53;;;13.51;100.00
48364;BME280;34170;54.364;18.582;2023-03-14T07:36:38;97700.66;;;14.81;95.52
48364;BME280;34170;54.364;18.582;2023-03-14T07:39:06;97712.75;;;15.26;91.71
48364;BME280;34170;54.364;18.582;2023-03-14T07:41:33;97703.50;;;14.86;90.15
48364;BME280;34170;54.364;18.582;2023-03-14T07:44:21;97703.00;;;15.13;87.26
48364;BME280;34170;54.364;18.582;2023-03-14T07:46:48;97702.13;;;16.06;83.08
48364;BME280;34170;54.364;18.582;2023-03-14T07:49:16;97694.16;;;16.16;83.91
48364;BME280;34170;54.364;18.582;2023-03-14T07:51:43;97691.81;;;15.62;86.66
48364;BME280;34170;54.364;18.582;2023-03-14T07:54:14;97685.84;;;14.96;91.08
48364;BME280;34170;54.364;18.582;2023-03-14T07:56:41;97694.72;;;15.20;89.40
48364;BME280;34170;54.364;18.582;2023-03-14T07:59:08;97690.44;;;15.88;85.97
48364;BME280;34170;54.364;18.582;2023-03-14T08:01:36;97683.44;;;15.63;85.85
48364;BME280;34170;54.364;18.582;2023-03-14T08:04:03;97684.81;;;15.37;85.67
48364;BME280;34170;54.364;18.582;2023-03-14T08:06:31;97681.09;;;15.96;84.73
48364;BME280;34170;54.364;18.582;2023-03-14T08:08:59;97689.69;;;15.93;84.82
48364;BME280;34170;54.364;18.582;2023-03-14T08:11:26;97682.84;;;15.09;90.00
48364;BME280;34170;54.364;18.582;2023-03-14T08:13:53;97683.25;;;15.41;88.64
48364;BME280;34170;54.364;18.582;2023-03-14T08:16:21;97684.06;;;14.54;93.48
48364;BME280;34170;54.364;18.582;2023-03-14T08:18:49;97681.25;;;14.61;92.61
48364;BME280;34170;54.364;18.582;2023-03-14T08:21:16;97666.31;;;14.58;94.37
48364;BME280;34170;54.364;18.582;2023-03-14T08:23:43;97672.47;;;14.23;96.71
48364;BME280;34170;54.364;18.582;2023-03-14T08:26:11;97677.84;;;14.00;95.81
48364;BME280;34170;54.364;18.582;2023-03-14T08:28:38;97654.78;;;14.51;95.29
48364;BME280;34170;54.364;18.582;2023-03-14T08:31:06;97662.75;;;15.17;91.08
48364;BME280;34170;54.364;18.582;2023-03-14T08:33:34;97665.38;;;14.88;90.59
48364;BME280;34170;54.364;18.582;2023-03-14T08:36:01;97667.50;;;14.62;91.92
48364;BME280;34170;54.364;18.582;2023-03-14T08:38:29;97655.13;;;13.77;98.64
48364;BME280;34170;54.364;18.582;2023-03-14T08:41:01;97661.22;;;14.38;95.37
48364;BME280;34170;54.364;18.582;2023-03-14T08:43:29;97647.06;;;14.13;96.82
48364;BME280;34170;54.364;18.582;2023-03-14T08:45:58;97636.63;;;13.62;99.49
48364;BME280;34170;54.364;18.582;2023-03-14T08:48:26;97627.19;;;13.83;100.00
48364;BME280;34170;54.364;18.582;2023-03-14T08:50:55;97633.09;;;14.04;98.97
48364;BME280;34170;54.364;18.582;2023-03-14T08:53:23;97631.34;;;14.09;97.78
48364;BME280;34170;54.364;18.582;2023-03-14T08:55:53;97633.72;;;14.29;97.75
48364;BME280;34170;54.364;18.582;2023-03-14T08:58:21;97641.38;;;14.56;95.30
48364;BME280;34170;54.364;18.582;2023-03-14T09:00:50;97651.03;;;14.76;93.14
48364;BME280;34170;54.364;18.582;2023-03-14T09:03:18;97641.22;;;14.39;96.72
48364;BME280;34170;54.364;18.582;2023-03-14T09:05:45;97641.22;;;14.39;96.69
48364;BME280;34170;54.364;18.582;2023-03-14T09:08:13;97653.56;;;14.23;97.39
48364;BME280;34170;54.364;18.582;2023-03-14T09:10:40;97651.63;;;14.78;92.70
48364;BME280;34170;54.364;18.582;2023-03-14T09:13:08;97639.72;;;15.02;91.88
48364;BME280;34170;54.364;18.582;2023-03-14T09:15:35;97641.81;;;15.00;90.15
48364;BME280;34170;54.364;18.582;2023-03-14T09:18:03;97641.16;;;14.70;93.32
48364;BME280;34170;54.364;18.582;2023-03-14T09:20:30;97644.31;;;14.55;94.15
48364;BME280;34170;54.364;18.582;2023-03-14T09:22:58;97645.81;;;14.86;93.13
48364;BME280;34170;54.364;18.582;2023-03-14T09:25:25;97652.38;;;15.54;89.31
48364;BME280;34170;54.364;18.582;2023-03-14T09:27:52;97665.66;;;15.56;87.66
48364;BME280;34170;54.364;18.582;2023-03-14T09:30:20;97665.16;;;15.30;88.67
48364;BME280;34170;54.364;18.582;2023-03-14T09:32:48;97664.56;;;15.40;87.01
48364;BME280;34170;54.364;18.582;2023-03-14T09:35:15;97665.84;;;15.37;87.56
48364;BME280;34170;54.364;18.582;2023-03-14T09:37:43;97671.06;;;15.27;87.28
48364;BME280;34170;54.364;18.582;2023-03-14T09:40:13;97658.38;;;15.56;86.61
48364;BME280;34170;54.364;18.582;2023-03-14T09:42:42;97663.03;;;16.01;84.24
48364;BME280;34170;54.364;18.582;2023-03-14T09:45:18;97656.59;;;15.91;82.99
48364;BME280;34170;54.364;18.582;2023-03-14T09:47:51;97674.03;;;15.14;87.71
48364;BME280;34170;54.364;18.582;2023-03-14T09:50:31;97668.75;;;15.19;87.52
48364;BME280;34170;54.364;18.582;2023-03-14T09:53:04;97664.47;;;15.23;86.90
48364;BME280;34170;54.364;18.582;2023-03-14T09:55:33;97671.56;;;15.00;88.17
48364;BME280;34170;54.364;18.582;2023-03-14T09:58:09;97680.19;;;14.97;89.79
48364;BME280;34170;54.364;18.582;2023-03-14T10:00:38;97653.94;;;14.39;93.24
48364;BME280;34170;54.364;18.582;2023-03-14T10:05:35;97672.88;;;14.51;92.39
48364;BME280;34170;54.364;18.582;2023-03-14T10:08:03;97671.84;;;14.87;90.36
48364;BME280;34170;54.364;18.582;2023-03-14T10:10:32;97665.63;;;14.86;90.36
48364;BME280;34170;54.364;18.582;2023-03-14T10:13:27;97676.41;;;14.51;92.87
48364;BME280;34170;54.364;18.582;2023-03-14T10:15:59;97682.16;;;14.55;92.61
48364;BME280;34170;54.364;18.582;2023-03-14T10:18:29;97683.38;;;14.59;92.13
48364;BME280;34170;54.364;18.582;2023-03-14T10:21:17;97678.13;;;14.34;94.09
48364;BME280;34170;54.364;18.582;2023-03-14T10:23:48;97677.09;;;14.35;93.78
48364;BME280;34170;54.364;18.582;2023-03-14T10:26:18;97671.44;;;14.24;93.84
48364;BME280;34170;54.364;18.582;2023-03-14T10:28:50;97678.97;;;14.46;92.87
48364;BME280;34170;54.364;18.582;2023-03-14T10:31:19;97689.56;;;14.47;93.39
48364;BME280;34170;54.364;18.582;2023-03-14T10:34:31;97694.44;;;14.69;91.58
48364;BME280;34170;54.364;18.582;2023-03-14T10:37:06;97693.50;;;14.63;91.75
48364;BME280;34170;54.364;18.582;2023-03-14T10:39:40;97690.03;;;14.56;91.41
48364;BME280;34170;54.364;18.582;2023-03-14T10:42:26;97685.53;;;14.26;93.84
48364;BME280;34170;54.364;18.582;2023-03-14T10:45:04;97703.47;;;14.98;89.93
48364;BME280;34170;54.364;18.582;2023-03-14T10:47:34;97679.50;;;14.90;90.03
48364;BME280;34170;54.364;18.582;2023-03-14T10:50:34;97700.91;;;14.92;89.90
48364;BME280;34170;54.364;18.582;2023-03-14T10:53:03;97696.66;;;14.84;90.14
48364;BME280;34170;54.364;18.582;2023-03-14T10:55:44;97694.63;;;14.44;91.39
48364;BME280;34170;54.364;18.582;2023-03-14T10:58:26;97692.97;;;14.55;91.44
48364;BME280;34170;54.364;18.582;2023-03-14T11:03:56;97674.53;;;14.87;88.80
48364;BME280;34170;54.364;18.582;2023-03-14T11:07:13;97684.78;;;14.85;87.52
48364;BME280;34170;54.364;18.582;2023-03-14T11:20:51;97650.06;;;14.94;87.56
48364;BME280;34170;54.364;18.582;2023-03-14T11:28:38;97650.03;;;15.87;81.45
48364;BME280;34170;54.364;18.582;2023-03-14T11:31:28;97651.41;;;15.60;82.98
48364;BME280;34170;54.364;18.582;2023-03-14T11:36:32;97660.28;;;15.03;83.83
48364;BME280;34170;54.364;18.582;2023-03-14T11:39:09;97653.47;;;15.41;82.66
48364;BME280;34170;54.364;18.582;2023-03-14T11:41:40;97658.84;;;15.24;82.91
48364;BME280;34170;54.364;18.582;2023-03-14T11:53:01;97620.84;;;15.07;84.16
48364;BME280;34170;54.364;18.582;2023-03-14T11:55:34;97635.13;;;15.43;82.43
48364;BME280;34170;54.364;18.582;2023-03-14T12:00:41;97619.91;;;15.71;79.10
48364;BME280;34170;54.364;18.582;2023-03-14T12:03:24;97640.63;;;16.06;78.85
48364;BME280;34170;54.364;18.582;2023-03-14T12:06:26;97644.50;;;15.81;79.30
48364;BME280;34170;54.364;18.582;2023-03-14T12:08:56;97643.19;;;15.55;80.22
48364;BME280;34170;54.364;18.582;2023-03-14T12:11:45;97636.28;;;15.48;80.28
48364;BME280;34170;54.364;18.582;2023-03-14T12:16:49;97637.63;;;15.91;76.86
48364;BME280;34170;54.364;18.582;2023-03-14T12:22:01;97639.78;;;16.06;78.22
48364;BME280;34170;54.364;18.582;2023-03-14T12:24:35;97631.31;;;15.73;76.78
48364;BME280;34170;54.364;18.582;2023-03-14T12:27:05;97645.38;;;14.89;81.18
48364;BME280;34170;54.364;18.582;2023-03-14T12:29:57;97641.91;;;15.17;80.63
48364;BME280;34170;54.364;18.582;2023-03-14T12:32:29;97630.97;;;15.00;80.56
48364;BME280;34170;54.364;18.582;2023-03-14T12:35:07;97632.00;;;15.52;79.57
48364;BME280;34170;54.364;18.582;2023-03-14T12:37:56;97628.72;;;15.50;78.54
48364;BME280;34170;54.364;18.582;2023-03-14T12:40:29;97637.69;;;15.79;77.71
48364;BME280;34170;54.364;18.582;2023-03-14T12:43:04;97619.72;;;15.90;77.00
48364;BME280;34170;54.364;18.582;2023-03-14T12:45:38;97618.19;;;15.94;74.89
48364;BME280;34170;54.364;18.582;2023-03-14T12:50:47;97626.00;;;15.21;78.58
48364;BME280;34170;54.364;18.582;2023-03-14T13:01:59;97614.19;;;15.27;75.28
48364;BME280;34170;54.364;18.582;2023-03-14T13:04:45;97619.88;;;15.25;75.72
48364;BME280;34170;54.364;18.582;2023-03-14T13:07:35;97625.34;;;15.42;74.98
48364;BME280;34170;54.364;18.582;2023-03-14T13:10:16;97626.06;;;15.38;74.68
48364;BME280;34170;54.364;18.582;2023-03-14T13:15:49;97620.50;;;15.04;76.68
48364;BME280;34170;54.364;18.582;2023-03-14T13:18:33;97605.94;;;14.93;77.65
48364;BME280;34170;54.364;18.582;2023-03-14T13:21:06;97614.41;;;15.37;76.46
48364;BME280;34170;54.364;18.582;2023-03-14T13:23:37;97605.31;;;15.72;74.58
48364;BME280;34170;54.364;18.582;2023-03-14T13:26:11;97614.63;;;15.93;71.90
48364;BME280;34170;54.364;18.582;2023-03-14T13:28:41;97616.94;;;16.01;70.65
48364;BME280;34170;54.364;18.582;2023-03-14T13:31:21;97613.63;;;15.54;72.25
48364;BME280;34170;54.364;18.582;2023-03-14T13:34:00;97608.09;;;15.20;73.94
48364;BME280;34170;54.364;18.582;2023-03-14T13:36:29;97610.47;;;15.16;73.95
48364;BME280;34170;54.364;18.582;2023-03-14T13:38:59;97622.72;;;15.48;72.53
48364;BME280;34170;54.364;18.582;2023-03-14T13:41:27;97618.09;;;15.60;71.69
48364;BME280;34170;54.364;18.582;2023-03-14T13:44:03;97611.25;;;15.29;72.19
48364;BME280;34170;54.364;18.582;2023-03-14T13:46:34;97610.47;;;15.45;71.76
48364;BME280;34170;54.364;18.582;2023-03-14T13:49:05;97620.84;;;15.48;71.88
48364;BME280;34170;54.364;18.582;2023-03-14T13:51:34;97608.94;;;15.20;72.72
48364;BME280;34170;54.364;18.582;2023-03-14T13:54:01;97601.84;;;15.31;72.31
48364;BME280;34170;54.364;18.582;2023-03-14T13:56:32;97613.63;;;15.54;71.65
48364;BME280;34170;54.364;18.582;2023-03-14T13:59:00;97603.78;;;15.07;74.05
48364;BME280;34170;54.364;18.582;2023-03-14T14:01:33;97605.16;;;15.79;71.02
48364;BME280;34170;54.364;18.582;2023-03-14T14:04:14;97607.69;;;15.40;72.05
48364;BME280;34170;54.364;18.582;2023-03-14T14:06:54;97612.50;;;15.67;70.96
48364;BME280;34170;54.364;18.582;2023-03-14T14:09:43;97620.41;;;15.39;72.92
48364;BME280;34170;54.364;18.582;2023-03-14T14:12:48;97619.91;;;15.42;72.04
48364;BME280;34170;54.364;18.582;2023-03-14T14:17:55;97604.38;;;15.09;73.43
48364;BME280;34170;54.364;18.582;2023-03-14T14:20:31;97613.81;;;15.06;72.42